sensor_id;sensor_type;location;lat;lon;timestamp;temperature;humidity
18950;DHT22;9608;49.288;8.130;2023-03-23T00:01:55;15.50;99.90
18950;DHT22;9608;49.288;8.130;2023-03-23T00:04:22;15.50;99.90
18950;DHT22;9608;49.288;8.130;2023-03-23T00:06:51;15.40;99.90
18950;DHT22;9608;49.288;8.130;2023-03-23T00:09:17;15.40;99.90
18950;DHT22;9608;49.288;8.130;2023-03-23T00:11:49;15.40;99.90
18950;DHT22;9608;49.288;8.130;2023-03-23T00:14:17;15.30;99.90
18950;DHT22;9608;49.288;8.130;2023-03-23T00:16:49;15.20;99.90
18950;DHT22;9608;49.288;8.130;2023-03-23T00:19:17;15.10;99.90
18950;DHT22;9608;49.288;8.130;2023-03-23T00:21:45;15.00;99.90
18950;DHT22;9608;49.288;8.130;2023-03-23T00:24:13;14.80;99.90
18950;DHT22;9608;49.288;8.130;2023-03-23T00:26:43;14.80;99.90
18950;DHT22;9608;49.288;8.130;2023-03-23T00:29:12;14.70;99.90
18950;DHT22;9608;49.288;8.130;2023-03-23T00:31:40;14.70;99.90
18950;DHT22;9608;49.288;8.130;2023-03-23T00:34:09;14.60;99.90
18950;DHT22;9608;49.288;8.130;2023-03-23T00:36:37;14.60;99.90
18950;DHT22;9608;49.288;8.130;2023-03-23T00:39:08;14.50;99.90
18950;DHT22;9608;49.288;8.130;2023-03-23T00:41:34;14.40;99.90
18950;DHT22;9608;49.288;8.130;2023-03-23T00:44:02;14.40;99.90
18950;DHT22;9608;49.288;8.130;2023-03-23T00:46:29;14.40;99.90
18950;DHT22;9608;49.288;8.130;2023-03-23T00:48:56;14.30;99.90
18950;DHT22;9608;49.288;8.130;2023-03-23T00:51:24;14.30;99.90
18950;DHT22;9608;49.288;8.130;2023-03-23T00:53:51;14.40;99.90
18950;DHT22;9608;49.288;8.130;2023-03-23T00:56:18;14.40;99.90
18950;DHT22;9608;49.288;8.130;2023-03-23T00:58:45;14.60;99.90
18950;DHT22;9608;49.288;8.130;2023-03-23T01:01:11;14.60;99.90
18950;DHT22;9608;49.288;8.130;2023-03-23T01:03:38;14.70;99.90
18950;DHT22;9608;49.288;8.130;2023-03-23T01:06:07;14.80;99.90
18950;DHT22;9608;49.288;8.130;2023-03-23T01:08:39;14.90;99.90
18950;DHT22;9608;49.288;8.130;2023-03-23T01:11:12;15.00;99.90
18950;DHT22;9608;49.288;8.130;2023-03-23T01:13:40;15.00;99.90
18950;DHT22;9608;49.288;8.130;2023-03-23T01:16:07;15.10;99.90
18950;DHT22;9608;49.288;8.130;2023-03-23T01:18:34;15.20;99.90
18950;DHT22;9608;49.288;8.130;2023-03-23T01:21:03;15.20;99.90
18950;DHT22;9608;49.288;8.130;2023-03-23T01:23:31;15.20;99.90
18950;DHT22;9608;49.288;8.130;2023-03-23T01:26:04;15.20;99.90
18950;DHT22;9608;49.288;8.130;2023-03-23T01:28:31;15.20;99.90
18950;DHT22;9608;49.288;8.130;2023-03-23T01:31:00;15.20;99.90
18950;DHT22;9608;49.288;8.130;2023-03-23T01:33:27;15.20;99.90
18950;DHT22;9608;49.288;8.130;2023-03-23T01:35:54;15.20;99.90
18950;DHT22;9608;49.288;8.130;2023-03-23T01:38:21;15.20;99.90
18950;DHT22;9608;49.288;8.130;2023-03-23T01:40:47;15.20;99.90
18950;DHT22;9608;49.288;8.130;2023-03-23T01:43:16;15.20;99.90
18950;DHT22;9608;49.288;8.130;2023-03-23T01:45:43;15.20;99.90
18950;DHT22;9608;49.288;8.130;2023-03-23T01:48:14;15.20;99.90
18950;DHT22;9608;49.288;8.130;2023-03-23T01:50:50;15.20;99.90
18950;DHT22;9608;49.288;8.130;2023-03-23T01:53:18;15.10;99.90
18950;DHT22;9608;49.288;8.130;2023-03-23T01:55:49;15.10;99.90
18950;DHT22;9608;49.288;8.130;2023-03-23T01:58:20;15.00;99.90
18950;DHT22;9608;49.288;8.130;2023-03-23T02:00:51;15.00;99.90
18950;DHT22;9608;49.288;8.130;2023-03-23T02:03:20;15.00;99.90
18950;DHT22;9608;49.288;8.130;2023-03-23T02:05:49;14.90;99.90
18950;DHT22;9608;49.288;8.130;2023-03-23T02:08:17;14.80;99.90
18950;DHT22;9608;49.288;8.130;2023-03-23T02:10:44;14.80;99.90
18950;DHT22;9608;49.288;8.130;2023-03-23T02:13:11;14.70;99.90
18950;DHT22;9608;49.288;8.130;2023-03-23T02:15:46;14.70;99.90
18950;DHT22;9608;49.288;8.130;2023-03-23T02:18:23;14.70;99.90
18950;DHT22;9608;49.288;8.130;2023-03-23T02:21:10;14.70;99.90
18950;DHT22;9608;49.288;8.130;2023-03-23T02:23:52;14.70;99.90
18950;DHT22;9608;49.288;8.130;2023-03-23T02:26:38;14.70;99.90
18950;DHT22;9608;49.288;8.130;2023-03-23T02:29:28;14.70;99.90
18950;DHT22;9608;49.288;8.130;2023-03-23T02:32:07;14.70;99.90
18950;DHT22;9608;49.288;8.130;2023-03-23T02:34:39;14.70;99.90
18950;DHT22;9608;49.288;8.130;2023-03-23T02:37:09;14.70;99.90
18950;DHT22;9608;49.288;8.130;2023-03-23T02:39:42;14.60;99.90
18950;DHT22;9608;49.288;8.130;2023-03-23T02:42:13;14.60;99.90
18950;DHT22;9608;49.288;8.130;2023-03-23T02:44:44;14.60;99.90
18950;DHT22;9608;49.288;8.130;2023-03-23T02:47:19;14.50;99.90
18950;DHT22;9608;49.288;8.130;2023-03-23T02:49:52;14.40;99.90
18950;DHT22;9608;49.288;8.130;2023-03-23T02:52:22;14.40;99.90
18950;DHT22;9608;49.288;8.130;2023-03-23T02:54:51;14.40;99.90
18950;DHT22;9608;49.288;8.130;2023-03-23T02:57:19;14.30;99.90
18950;DHT22;9608;49.288;8.130;2023-03-23T02:59:47;14.30;99.90
18950;DHT22;9608;49.288;8.130;2023-03-23T03:02:17;14.30;99.90
18950;DHT22;9608;49.288;8.130;2023-03-23T03:04:51;14.20;99.90
18950;DHT22;9608;49.288;8.130;2023-03-23T03:07:38;14.20;99.90
18950;DHT22;9608;49.288;8.130;2023-03-23T03:10:18;14.30;99.90
18950;DHT22;9608;49.288;8.130;2023-03-23T03:12:52;14.30;99.90
18950;DHT22;9608;49.288;8.130;2023-03-23T03:15:26;14.20;99.90
18950;DHT22;9608;49.288;8.130;2023-03-23T03:18:01;14.20;99.90
18950;DHT22;9608;49.288;8.130;2023-03-23T03:20:32;14.10;99.90
18950;DHT22;9608;49.288;8.130;2023-03-23T03:23:02;14.10;99.90
18950;DHT22;9608;49.288;8.130;2023-03-23T03:25:29;14.10;99.90
18950;DHT22;9608;49.288;8.130;2023-03-23T03:27:56;14.10;99.90
18950;DHT22;9608;49.288;8.130;2023-03-23T03:30:26;14.10;99.90
18950;DHT22;9608;49.288;8.130;2023-03-23T03:32:56;14.00;99.90
18950;DHT22;9608;49.288;8.130;2023-03-23T03:35:26;14.00;99.90
18950;DHT22;9608;49.288;8.130;2023-03-23T03:37:54;14.10;99.90
18950;DHT22;9608;49.288;8.130;2023-03-23T03:40:23;14.10;99.90
18950;DHT22;9608;49.288;8.130;2023-03-23T03:42:50;14.10;99.90
18950;DHT22;9608;49.288;8.130;2023-03-23T03:45:19;14.10;99.90
18950;DHT22;9608;49.288;8.130;2023-03-23T03:47:46;14.10;99.90
18950;DHT22;9608;49.288;8.130;2023-03-23T03:50:13;14.20;99.90
18950;DHT22;9608;49.288;8.130;2023-03-23T03:52:40;14.20;99.90
18950;DHT22;9608;49.288;8.130;2023-03-23T03:55:09;14.30;99.90
18950;DHT22;9608;49.288;8.130;2023-03-23T03:57:37;14.40;99.90
18950;DHT22;9608;49.288;8.130;2023-03-23T04:00:09;14.40;99.90
18950;DHT22;9608;49.288;8.130;2023-03-23T04:02:39;14.40;99.90
18950;DHT22;9608;49.288;8.130;2023-03-23T04:05:07;14.40;99.90
18950;DHT22;9608;49.288;8.130;2023-03-23T04:07:34;14.40;99.90
18950;DHT22;9608;49.288;8.130;2023-03-23T04:10:04;14.40;99.90
18950;DHT22;9608;49.288;8.130;2023-03-23T04:12:32;14.40;99.90
18950;DHT22;9608;49.288;8.130;2023-03-23T04:15:00;14.40;99.90
18950;DHT22;9608;49.288;8.130;2023-03-23T04:17:27;14.30;99.90
18950;DHT22;9608;49.288;8.130;2023-03-23T04:19:54;14.40;99.90
18950;DHT22;9608;49.288;8.130;2023-03-23T04:22:22;14.40;99.90
18950;DHT22;9608;49.288;8.130;2023-03-23T04:24:56;14.40;99.90
18950;DHT22;9608;49.288;8.130;2023-03-23T04:27:24;14.40;99.90
18950;DHT22;9608;49.288;8.130;2023-03-23T04:29:54;14.30;99.90
18950;DHT22;9608;49.288;8.130;2023-03-23T04:32:23;14.30;99.90
18950;DHT22;9608;49.288;8.130;2023-03-23T04:34:54;14.20;99.90
18950;DHT22;9608;49.288;8.130;2023-03-23T04:37:21;14.10;99.90
18950;DHT22;9608;49.288;8.130;2023-03-23T04:39:51;14.10;99.90
18950;DHT22;9608;49.288;8.130;2023-03-23T04:42:27;14.10;99.90
18950;DHT22;9608;49.288;8.130;2023-03-23T04:44:56;14.00;99.90
18950;DHT22;9608;49.288;8.130;2023-03-23T04:47:24;14.10;99.90
18950;DHT22;9608;49.288;8.130;2023-03-23T04:49:54;14.00;99.90
18950;DHT22;9608;49.288;8.130;2023-03-23T04:52:22;13.90;99.90
18950;DHT22;9608;49.288;8.130;2023-03-23T04:54:50;13.90;99.90
18950;DHT22;9608;49.288;8.130;2023-03-23T04:57:17;13.90;99.90
18950;DHT22;9608;49.288;8.130;2023-03-23T04:59:43;13.70;99.90
18950;DHT22;9608;49.288;8.130;2023-03-23T05:02:12;13.70;99.90
18950;DHT22;9608;49.288;8.130;2023-03-23T05:04:39;13.70;99.90
18950;DHT22;9608;49.288;8.130;2023-03-23T05:07:07;13.70;99.90
18950;DHT22;9608;49.288;8.130;2023-03-23T05:09:34;13.70;99.90
18950;DHT22;9608;49.288;8.130;2023-03-23T05:12:04;13.70;99.90
18950;DHT22;9608;49.288;8.130;2023-03-23T05:14:31;13.70;99.90
18950;DHT22;9608;49.288;8.130;2023-03-23T05:16:58;13.70;99.90
18950;DHT22;9608;49.288;8.130;2023-03-23T05:19:26;13.80;99.90
18950;DHT22;9608;49.288;8.130;2023-03-23T05:21:53;13.80;99.90
18950;DHT22;9608;49.288;8.130;2023-03-23T05:24:20;13.80;99.90
18950;DHT22;9608;49.288;8.130;2023-03-23T05:26:47;13.90;99.90
18950;DHT22;9608;49.288;8.130;2023-03-23T05:29:17;13.90;99.90
18950;DHT22;9608;49.288;8.130;2023-03-23T05:31:44;13.90;99.90
18950;DHT22;9608;49.288;8.130;2023-03-23T05:34:11;13.90;99.90
18950;DHT22;9608;49.288;8.130;2023-03-23T05:36:39;13.90;99.90
18950;DHT22;9608;49.288;8.130;2023-03-23T05:39:06;13.90;99.90
18950;DHT22;9608;49.288;8.130;2023-03-23T05:41:35;13.90;99.90
18950;DHT22;9608;49.288;8.130;2023-03-23T05:44:01;13.90;99.90
18950;DHT22;9608;49.288;8.130;2023-03-23T05:46:29;13.80;99.90
18950;DHT22;9608;49.288;8.130;2023-03-23T05:48:56;13.90;99.90
18950;DHT22;9608;49.288;8.130;2023-03-23T05:51:22;13.90;99.90
18950;DHT22;9608;49.288;8.130;2023-03-23T05:53:50;13.80;99.90
18950;DHT22;9608;49.288;8.130;2023-03-23T05:56:17;13.80;99.90
18950;DHT22;9608;49.288;8.130;2023-03-23T05:58:44;13.70;99.90
18950;DHT22;9608;49.288;8.130;2023-03-23T06:01:11;13.70;99.90
18950;DHT22;9608;49.288;8.130;2023-03-23T06:03:39;13.60;99.90
18950;DHT22;9608;49.288;8.130;2023-03-23T06:06:06;13.60;99.90
18950;DHT22;9608;49.288;8.130;2023-03-23T06:08:35;13.60;99.90
18950;DHT22;9608;49.288;8.130;2023-03-23T06:11:04;13.60;99.90
18950;DHT22;9608;49.288;8.130;2023-03-23T06:13:31;13.60;99.90
18950;DHT22;9608;49.288;8.130;2023-03-23T06:15:58;13.50;99.90
18950;DHT22;9608;49.288;8.130;2023-03-23T06:18:25;13.60;99.90
18950;DHT22;9608;49.288;8.130;2023-03-23T06:20:53;13.60;99.90
18950;DHT22;9608;49.288;8.130;2023-03-23T06:23:20;13.60;99.90
18950;DHT22;9608;49.288;8.130;2023-03-23T06:25:47;13.60;99.90
18950;DHT22;9608;49.288;8.130;2023-03-23T06:28:16;13.60;99.90
18950;DHT22;9608;49.288;8.130;2023-03-23T06:30:42;13.50;99.90
18950;DHT22;9608;49.288;8.130;2023-03-23T06:33:09;13.60;99.90
18950;DHT22;9608;49.288;8.130;2023-03-23T06:35:36;13.50;99.90
18950;DHT22;9608;49.288;8.130;2023-03-23T06:38:06;13.50;99.90
18950;DHT22;9608;49.288;8.130;2023-03-23T06:40:32;13.50;99.90
18950;DHT22;9608;49.288;8.130;2023-03-23T06:43:01;13.40;99.90
18950;DHT22;9608;49.288;8.130;2023-03-23T06:45:30;13.30;99.90
18950;DHT22;9608;49.288;8.130;2023-03-23T06:48:00;13.40;99.90
18950;DHT22;9608;49.288;8.130;2023-03-23T06:50:27;13.30;99.90
18950;DHT22;9608;49.288;8.130;2023-03-23T06:52:54;13.10;99.90
18950;DHT22;9608;49.288;8.130;2023-03-23T06:55:21;13.10;99.90
18950;DHT22;9608;49.288;8.130;2023-03-23T06:57:48;13.00;99.90
18950;DHT22;9608;49.288;8.130;2023-03-23T07:00:16;13.00;99.90
18950;DHT22;9608;49.288;8.130;2023-03-23T07:02:44;12.90;99.90
18950;DHT22;9608;49.288;8.130;2023-03-23T07:05:12;12.80;99.90
18950;DHT22;9608;49.288;8.130;2023-03-23T07:07:40;12.80;99.90
18950;DHT22;9608;49.288;8.130;2023-03-23T07:10:09;12.80;99.90
18950;DHT22;9608;49.288;8.130;2023-03-23T07:12:37;12.70;99.90
18950;DHT22;9608;49.288;8.130;2023-03-23T07:15:06;12.70;99.90
18950;DHT22;9608;49.288;8.130;2023-03-23T07:17:36;12.60;99.90
18950;DHT22;9608;49.288;8.130;2023-03-23T07:20:06;12.60;99.90
18950;DHT22;9608;49.288;8.130;2023-03-23T07:22:34;12.50;99.90
18950;DHT22;9608;49.288;8.130;2023-03-23T07:25:02;12.50;99.90
18950;DHT22;9608;49.288;8.130;2023-03-23T07:27:30;12.40;99.90
18950;DHT22;9608;49.288;8.130;2023-03-23T07:29:57;12.40;99.90
18950;DHT22;9608;49.288;8.130;2023-03-23T07:32:24;12.40;99.90
18950;DHT22;9608;49.288;8.130;2023-03-23T07:34:52;12.40;99.90
18950;DHT22;9608;49.288;8.130;2023-03-23T07:37:24;12.40;99.90
18950;DHT22;9608;49.288;8.130;2023-03-23T07:39:51;12.40;99.90
18950;DHT22;9608;49.288;8.130;2023-03-23T07:42:18;12.50;99.90
18950;DHT22;9608;49.288;8.130;2023-03-23T07:44:46;12.50;99.90
18950;DHT22;9608;49.288;8.130;2023-03-23T07:47:14;12.60;99.90
18950;DHT22;9608;49.288;8.130;2023-03-23T07:49:43;12.70;99.90
18950;DHT22;9608;49.288;8.130;2023-03-23T07:52:10;12.80;99.90
18950;DHT22;9608;49.288;8.130;2023-03-23T07:54:40;12.90;99.90
18950;DHT22;9608;49.288;8.130;2023-03-23T07:57:07;12.90;99.90
18950;DHT22;9608;49.288;8.130;2023-03-23T07:59:35;13.00;99.90
18950;DHT22;9608;49.288;8.130;2023-03-23T08:02:02;13.00;99.90
18950;DHT22;9608;49.288;8.130;2023-03-23T08:04:30;13.20;99.90
18950;DHT22;9608;49.288;8.130;2023-03-23T08:07:02;13.10;99.90
18950;DHT22;9608;49.288;8.130;2023-03-23T08:09:30;13.10;99.90
18950;DHT22;9608;49.288;8.130;2023-03-23T08:12:01;13.10;99.90
18950;DHT22;9608;49.288;8.130;2023-03-23T08:14:29;13.10;99.90
18950;DHT22;9608;49.288;8.130;2023-03-23T08:16:58;13.00;99.90
18950;DHT22;9608;49.288;8.130;2023-03-23T08:19:28;13.20;99.90
18950;DHT22;9608;49.288;8.130;2023-03-23T08:21:56;13.40;99.90
18950;DHT22;9608;49.288;8.130;2023-03-23T08:24:23;13.40;99.90
18950;DHT22;9608;49.288;8.130;2023-03-23T08:26:50;13.60;99.90
18950;DHT22;9608;49.288;8.130;2023-03-23T08:29:21;13.70;99.90
18950;DHT22;9608;49.288;8.130;2023-03-23T08:31:48;13.70;99.90
18950;DHT22;9608;49.288;8.130;2023-03-23T08:34:16;13.80;99.90
18950;DHT22;9608;49.288;8.130;2023-03-23T08:36:43;13.80;99.90
18950;DHT22;9608;49.288;8.130;2023-03-23T08:39:12;13.80;99.90
18950;DHT22;9608;49.288;8.130;2023-03-23T08:41:39;13.70;99.90
18950;DHT22;9608;49.288;8.130;2023-03-23T08:44:20;13.80;99.90
18950;DHT22;9608;49.288;8.130;2023-03-23T08:46:46;13.90;99.90
18950;DHT22;9608;49.288;8.130;2023-03-23T08:49:15;14.00;99.90
18950;DHT22;9608;49.288;8.130;2023-03-23T08:51:43;14.10;99.90
18950;DHT22;9608;49.288;8.130;2023-03-23T08:54:10;14.30;99.90
18950;DHT22;9608;49.288;8.130;2023-03-23T08:56:40;14.20;99.90
18950;DHT22;9608;49.288;8.130;2023-03-23T08:59:08;14.30;99.90
18950;DHT22;9608;49.288;8.130;2023-03-23T09:01:39;14.30;99.90
18950;DHT22;9608;49.288;8.130;2023-03-23T09:04:10;14.30;99.90
18950;DHT22;9608;49.288;8.130;2023-03-23T09:06:40;14.40;99.90
18950;DHT22;9608;49.288;8.130;2023-03-23T09:09:08;14.60;99.90
18950;DHT22;9608;49.288;8.130;2023-03-23T09:11:36;14.80;99.90
18950;DHT22;9608;49.288;8.130;2023-03-23T09:14:05;14.70;99.90
18950;DHT22;9608;49.288;8.130;2023-03-23T09:16:34;14.60;99.90
18950;DHT22;9608;49.288;8.130;2023-03-23T09:19:03;14.60;99.90
18950;DHT22;9608;49.288;8.130;2023-03-23T09:21:31;14.50;99.90
18950;DHT22;9608;49.288;8.130;2023-03-23T09:23:58;14.30;99.90
18950;DHT22;9608;49.288;8.130;2023-03-23T09:26:27;14.10;99.90
18950;DHT22;9608;49.288;8.130;2023-03-23T09:28:55;13.80;99.90
18950;DHT22;9608;49.288;8.130;2023-03-23T09:31:24;13.80;99.90
18950;DHT22;9608;49.288;8.130;2023-03-23T09:33:52;14.00;99.90
18950;DHT22;9608;49.288;8.130;2023-03-23T09:36:24;13.90;99.90
18950;DHT22;9608;49.288;8.130;2023-03-23T09:38:54;13.90;99.90
18950;DHT22;9608;49.288;8.130;2023-03-23T09:44:29;14.30;99.90
18950;DHT22;9608;49.288;8.130;2023-03-23T09:47:11;14.40;99.90
18950;DHT22;9608;49.288;8.130;2023-03-23T09:49:48;14.50;99.90
18950;DHT22;9608;49.288;8.130;2023-03-23T09:52:22;14.50;99.90
18950;DHT22;9608;49.288;8.130;2023-03-23T09:54:53;14.40;99.90
18950;DHT22;9608;49.288;8.130;2023-03-23T09:57:26;14.20;99.90
18950;DHT22;9608;49.288;8.130;2023-03-23T10:00:02;14.00;99.90
18950;DHT22;9608;49.288;8.130;2023-03-23T10:02:37;13.80;99.90
18950;DHT22;9608;49.288;8.130;2023-03-23T10:05:31;13.70;99.90
18950;DHT22;9608;49.288;8.130;2023-03-23T10:08:11;13.80;99.90
18950;DHT22;9608;49.288;8.130;2023-03-23T10:10:48;14.00;99.90
18950;DHT22;9608;49.288;8.130;2023-03-23T10:13:25;14.20;99.90
18950;DHT22;9608;49.288;8.130;2023-03-23T10:15:56;14.30;99.90
18950;DHT22;9608;49.288;8.130;2023-03-23T10:18:30;14.50;99.90
18950;DHT22;9608;49.288;8.130;2023-03-23T10:21:06;14.50;99.90
18950;DHT22;9608;49.288;8.130;2023-03-23T10:23:56;14.70;99.90
18950;DHT22;9608;49.288;8.130;2023-03-23T10:26:37;14.80;99.90
18950;DHT22;9608;49.288;8.130;2023-03-23T10:29:14;14.90;99.90
18950;DHT22;9608;49.288;8.130;2023-03-23T10:31:45;14.80;99.90
18950;DHT22;9608;49.288;8.130;2023-03-23T10:34:18;14.80;99.90
18950;DHT22;9608;49.288;8.130;2023-03-23T10:36:55;15.00;99.90
18950;DHT22;9608;49.288;8.130;2023-03-23T10:39:29;15.20;99.90
18950;DHT22;9608;49.288;8.130;2023-03-23T10:41:57;15.40;99.90
18950;DHT22;9608;49.288;8.130;2023-03-23T10:44:32;15.60;99.90
18950;DHT22;9608;49.288;8.130;2023-03-23T10:47:03;15.40;99.90
18950;DHT22;9608;49.288;8.130;2023-03-23T10:49:36;15.30;99.90
18950;DHT22;9608;49.288;8.130;2023-03-23T10:52:13;15.20;99.90
18950;DHT22;9608;49.288;8.130;2023-03-23T10:54:51;15.10;99.90
18950;DHT22;9608;49.288;8.130;2023-03-23T10:57:25;15.20;99.90
18950;DHT22;9608;49.288;8.130;2023-03-23T10:59:59;14.90;99.90
18950;DHT22;9608;49.288;8.130;2023-03-23T11:02:32;14.70;99.90
18950;DHT22;9608;49.288;8.130;2023-03-23T11:05:02;14.70;99.90
18950;DHT22;9608;49.288;8.130;2023-03-23T11:07:32;14.80;99.90
18950;DHT22;9608;49.288;8.130;2023-03-23T11:10:16;14.80;99.90
18950;DHT22;9608;49.288;8.130;2023-03-23T11:12:45;14.70;99.90
18950;DHT22;9608;49.288;8.130;2023-03-23T11:15:29;15.00;99.90
18950;DHT22;9608;49.288;8.130;2023-03-23T11:18:01;15.30;99.90
18950;DHT22;9608;49.288;8.130;2023-03-23T11:20:29;15.60;99.90
18950;DHT22;9608;49.288;8.130;2023-03-23T11:23:07;15.70;99.90
18950;DHT22;9608;49.288;8.130;2023-03-23T11:25:51;15.40;99.90
18950;DHT22;9608;49.288;8.130;2023-03-23T11:28:19;15.40;99.90
18950;DHT22;9608;49.288;8.130;2023-03-23T11:30:47;15.40;99.90
18950;DHT22;9608;49.288;8.130;2023-03-23T11:33:15;15.70;99.90
18950;DHT22;9608;49.288;8.130;2023-03-23T11:35:44;15.90;99.90
18950;DHT22;9608;49.288;8.130;2023-03-23T11:38:18;16.00;99.90
18950;DHT22;9608;49.288;8.130;2023-03-23T11:40:50;16.00;99.90
18950;DHT22;9608;49.288;8.130;2023-03-23T11:43:19;15.90;99.90
18950;DHT22;9608;49.288;8.130;2023-03-23T11:45:53;15.70;99.90
18950;DHT22;9608;49.288;8.130;2023-03-23T11:48:28;15.80;99.90
18950;DHT22;9608;49.288;8.130;2023-03-23T11:51:00;16.10;99.90
18950;DHT22;9608;49.288;8.130;2023-03-23T11:53:34;16.10;99.90
18950;DHT22;9608;49.288;8.130;2023-03-23T11:56:14;16.00;99.90
18950;DHT22;9608;49.288;8.130;2023-03-23T11:58:43;15.90;99.90
18950;DHT22;9608;49.288;8.130;2023-03-23T12:01:29;15.70;99.90
18950;DHT22;9608;49.288;8.130;2023-03-23T12:04:09;15.60;99.90
18950;DHT22;9608;49.288;8.130;2023-03-23T12:06:48;15.50;99.90
18950;DHT22;9608;49.288;8.130;2023-03-23T12:09:24;15.50;99.90
18950;DHT22;9608;49.288;8.130;2023-03-23T12:12:08;15.40;99.90
18950;DHT22;9608;49.288;8.130;2023-03-23T12:14:42;15.30;99.90
18950;DHT22;9608;49.288;8.130;2023-03-23T12:17:22;15.20;99.90
18950;DHT22;9608;49.288;8.130;2023-03-23T12:20:00;15.30;99.90
18950;DHT22;9608;49.288;8.130;2023-03-23T12:22:40;15.30;99.90
18950;DHT22;9608;49.288;8.130;2023-03-23T12:25:30;15.40;99.90
18950;DHT22;9608;49.288;8.130;2023-03-23T12:28:04;15.20;99.90
18950;DHT22;9608;49.288;8.130;2023-03-23T12:30:38;15.10;99.90
18950;DHT22;9608;49.288;8.130;2023-03-23T12:33:15;15.30;99.90
18950;DHT22;9608;49.288;8.130;2023-03-23T12:35:54;15.60;99.90
18950;DHT22;9608;49.288;8.130;2023-03-23T12:38:41;15.80;99.90
18950;DHT22;9608;49.288;8.130;2023-03-23T12:41:16;15.60;99.90
18950;DHT22;9608;49.288;8.130;2023-03-23T12:43:50;15.60;99.90
18950;DHT22;9608;49.288;8.130;2023-03-23T12:46:37;15.40;99.90
18950;DHT22;9608;49.288;8.130;2023-03-23T12:49:11;15.30;99.90
18950;DHT22;9608;49.288;8.130;2023-03-23T12:51:45;15.20;99.90
18950;DHT22;9608;49.288;8.130;2023-03-23T12:54:18;15.30;99.90
18950;DHT22;9608;49.288;8.130;2023-03-23T12:56:52;15.40;99.90
18950;DHT22;9608;49.288;8.130;2023-03-23T12:59:26;15.50;99.90
18950;DHT22;9608;49.288;8.130;2023-03-23T13:01:59;15.60;99.90
18950;DHT22;9608;49.288;8.130;2023-03-23T13:04:30;15.80;99.90
18950;DHT22;9608;49.288;8.130;2023-03-23T13:07:01;15.80;99.90
18950;DHT22;9608;49.288;8.130;2023-03-23T13:09:35;16.00;99.90
18950;DHT22;9608;49.288;8.130;2023-03-23T13:12:04;16.20;99.90
18950;DHT22;9608;49.288;8.130;2023-03-23T13:14:40;16.30;99.90
18950;DHT22;9608;49.288;8.130;2023-03-23T13:17:19;16.40;99.90
18950;DHT22;9608;49.288;8.130;2023-03-23T13:20:03;16.40;99.90
18950;DHT22;9608;49.288;8.130;2023-03-23T13:22:39;16.40;99.90
18950;DHT22;9608;49.288;8.130;2023-03-23T13:25:14;16.60;99.90
18950;DHT22;9608;49.288;8.130;2023-03-23T13:27:42;16.20;99.90
18950;DHT22;9608;49.288;8.130;2023-03-23T13:30:20;16.20;99.90
18950;DHT22;9608;49.288;8.130;2023-03-23T13:32:50;15.80;99.90
18950;DHT22;9608;49.288;8.130;2023-03-23T13:35:19;15.50;99.90
18950;DHT22;9608;49.288;8.130;2023-03-23T13:37:49;15.40;99.90
18950;DHT22;9608;49.288;8.130;2023-03-23T13:40:25;15.30;99.90
18950;DHT22;9608;49.288;8.130;2023-03-23T13:42:56;15.00;99.90
18950;DHT22;9608;49.288;8.130;2023-03-23T13:45:42;14.90;99.90
18950;DHT22;9608;49.288;8.130;2023-03-23T13:48:19;14.70;99.90
18950;DHT22;9608;49.288;8.130;2023-03-23T13:50:51;14.60;99.90
18950;DHT22;9608;49.288;8.130;2023-03-23T13:53:27;14.50;99.90
18950;DHT22;9608;49.288;8.130;2023-03-23T13:56:15;14.40;99.90
18950;DHT22;9608;49.288;8.130;2023-03-23T13:58:47;14.50;99.90
18950;DHT22;9608;49.288;8.130;2023-03-23T14:01:18;14.40;99.90
18950;DHT22;9608;49.288;8.130;2023-03-23T14:03:48;14.40;99.90
18950;DHT22;9608;49.288;8.130;2023-03-23T14:06:19;14.40;99.90
18950;DHT22;9608;49.288;8.130;2023-03-23T14:08:50;14.40;99.90
18950;DHT22;9608;49.288;8.130;2023-03-23T14:11:22;14.50;99.90
18950;DHT22;9608;49.288;8.130;2023-03-23T14:14:07;14.50;99.90
18950;DHT22;9608;49.288;8.130;2023-03-23T14:16:44;14.40;99.90
18950;DHT22;9608;49.288;8.130;2023-03-23T14:19:17;14.40;99.90
18950;DHT22;9608;49.288;8.130;2023-03-23T14:21:50;14.50;99.90
18950;DHT22;9608;49.288;8.130;2023-03-23T14:24:20;14.60;99.90
18950;DHT22;9608;49.288;8.130;2023-03-23T14:26:49;14.60;99.90
18950;DHT22;9608;49.288;8.130;2023-03-23T14:29:18;14.70;99.90
18950;DHT22;9608;49.288;8.130;2023-03-23T14:31:51;14.60;99.90
18950;DHT22;9608;49.288;8.130;2023-03-23T14:34:24;14.60;99.90
18950;DHT22;9608;49.288;8.130;2023-03-23T14:36:52;14.60;99.90
18950;DHT22;9608;49.288;8.130;2023-03-23T14:39:22;14.60;99.90
18950;DHT22;9608;49.288;8.130;2023-03-23T14:41:49;14.60;99.90
18950;DHT22;9608;49.288;8.130;2023-03-23T14:44:20;14.50;99.90
18950;DHT22;9608;49.288;8.130;2023-03-23T14:46:49;14.60;99.90
18950;DHT22;9608;49.288;8.130;2023-03-23T14:49:19;14.60;99.90
18950;DHT22;9608;49.288;8.130;2023-03-23T14:51:48;14.60;99.90
18950;DHT22;9608;49.288;8.130;2023-03-23T14:54:21;14.70;99.90
18950;DHT22;9608;49.288;8.130;2023-03-23T14:56:49;14.70;99.90
18950;DHT22;9608;49.288;8.130;2023-03-23T14:59:16;14.80;99.90
18950;DHT22;9608;49.288;8.130;2023-03-23T15:01:44;14.70;99.90
18950;DHT22;9608;49.288;8.130;2023-03-23T15:04:15;14.60;99.90
18950;DHT22;9608;49.288;8.130;2023-03-23T15:06:46;14.70;99.90
18950;DHT22;9608;49.288;8.130;2023-03-23T15:09:18;14.90;99.90
18950;DHT22;9608;49.288;8.130;2023-03-23T15:11:52;15.00;99.90
18950;DHT22;9608;49.288;8.130;2023-03-23T15:14:22;15.10;99.90
18950;DHT22;9608;49.288;8.130;2023-03-23T15:16:50;14.90;99.90
18950;DHT22;9608;49.288;8.130;2023-03-23T15:19:21;14.60;99.90
18950;DHT22;9608;49.288;8.130;2023-03-23T15:21:52;14.60;99.90
18950;DHT22;9608;49.288;8.130;2023-03-23T15:24:27;14.60;99.90
18950;DHT22;9608;49.288;8.130;2023-03-23T15:26:54;14.50;99.90
18950;DHT22;9608;49.288;8.130;2023-03-23T15:29:29;14.60;99.90
18950;DHT22;9608;49.288;8.130;2023-03-23T15:31:55;14.60;99.90
18950;DHT22;9608;49.288;8.130;2023-03-23T15:34:30;14.60;99.90
18950;DHT22;9608;49.288;8.130;2023-03-23T15:37:00;14.70;99.90
18950;DHT22;9608;49.288;8.130;2023-03-23T15:39:28;14.70;99.90
18950;DHT22;9608;49.288;8.130;2023-03-23T15:41:56;14.60;99.90
18950;DHT22;9608;49.288;8.130;2023-03-23T15:44:29;14.50;99.90
18950;DHT22;9608;49.288;8.130;2023-03-23T15:47:14;14.50;99.90
18950;DHT22;9608;49.288;8.130;2023-03-23T15:49:44;14.60;99.90
18950;DHT22;9608;49.288;8.130;2023-03-23T15:52:13;14.70;99.90
18950;DHT22;9608;49.288;8.130;2023-03-23T15:54:46;14.90;99.90
18950;DHT22;9608;49.288;8.130;2023-03-23T15:57:13;14.70;99.90
18950;DHT22;9608;49.288;8.130;2023-03-23T15:59:39;14.60;99.90
18950;DHT22;9608;49.288;8.130;2023-03-23T16:02:13;14.60;99.90
18950;DHT22;9608;49.288;8.130;2023-03-23T16:04:44;14.60;99.90
18950;DHT22;9608;49.288;8.130;2023-03-23T16:07:11;14.70;99.90
18950;DHT22;9608;49.288;8.130;2023-03-23T16:09:38;14.70;99.90
18950;DHT22;9608;49.288;8.130;2023-03-23T16:12:09;14.80;99.90